Redlake, Minnesota
Current Conditions -  °F | °C
As of 8:32 PM on Friday 28 Nov 2014 (Local Time) from KBJI Reporting Station
Overcast Overcast  
Wind Chill:   Ceiling: 2300
Heat Index: 15°   Visibility: 10mi
Dew Point: 10°   Wind: 12mph
Humidity: 82%   Direction: 140°SE
Pressure: 29.68"   Gusts: NA
Location:  47.88°N, 95.02°W
Report Text: KBJI 290232Z AUTO 14010KT 10SM SCT013 OVC023 M09/M12 A2968 RMK AO2 T10951120
Loading
Personal Weather Stations






























Interactive Weather Map New forecast layout! Learn more

10-Day Weather Forecast

Advertisements
Track Severe Weather on mobile